createdAt,value
2023-01-12T00:02:16.661Z,44.83
2023-01-12T00:04:45.509Z,46.13
2023-01-12T00:07:16.168Z,49.27
2023-01-12T00:09:44.419Z,49.20
2023-01-12T00:12:13.613Z,50.33
2023-01-12T00:14:41.854Z,49.83
2023-01-12T00:17:12.173Z,51.13
2023-01-12T00:19:40.444Z,50.57
2023-01-12T00:22:12.192Z,52.70
2023-01-12T00:24:41.832Z,53.47
2023-01-12T00:27:12.667Z,52.23
2023-01-12T00:29:40.909Z,51.60
2023-01-12T00:32:15.105Z,55.47
2023-01-12T00:34:43.279Z,53.60
2023-01-12T00:37:11.657Z,52.23
2023-01-12T00:39:42.958Z,51.67
2023-01-12T00:42:31.786Z,51.60
2023-01-12T00:45:17.560Z,52.40
2023-01-12T00:47:47.050Z,51.00
2023-01-12T00:50:17.871Z,51.67
2023-01-12T00:52:47.326Z,48.83
2023-01-12T00:55:15.443Z,50.20
2023-01-12T00:57:43.808Z,48.43
2023-01-12T01:00:13.151Z,51.00
2023-01-12T01:02:41.320Z,50.33
2023-01-12T01:05:11.241Z,50.40
2023-01-12T01:07:39.382Z,50.43
2023-01-12T01:10:08.298Z,52.83
2023-01-12T01:12:36.390Z,52.53
2023-01-12T01:15:05.099Z,52.90
2023-01-12T01:17:33.376Z,53.50
2023-01-12T01:20:01.670Z,50.93
2023-01-12T01:22:31.194Z,50.63
2023-01-12T01:24:59.291Z,49.03
2023-01-12T01:27:27.321Z,48.13
2023-01-12T01:29:55.598Z,49.13
2023-01-12T01:32:23.715Z,50.40
2023-01-12T01:34:51.754Z,48.77
2023-01-12T01:37:21.899Z,48.57
2023-01-12T01:39:51.464Z,46.30
2023-01-12T01:42:28.899Z,48.60
2023-01-12T01:44:59.426Z,48.33
2023-01-12T01:47:37.544Z,49.03
2023-01-12T01:50:15.945Z,49.77
2023-01-12T01:52:48.071Z,50.20
2023-01-12T01:55:23.604Z,49.57
2023-01-12T01:57:55.860Z,50.73
2023-01-12T02:00:25.817Z,51.50
2023-01-12T02:02:55.874Z,52.43
2023-01-12T02:05:27.661Z,52.60
2023-01-12T02:08:00.999Z,54.10
2023-01-12T02:10:30.529Z,52.67
2023-01-12T02:13:15.860Z,56.07
2023-01-12T02:16:20.024Z,56.17
2023-01-12T02:18:58.995Z,56.20
2023-01-12T02:21:54.289Z,54.53
2023-01-12T02:24:59.867Z,55.80
2023-01-12T02:28:07.011Z,56.10
2023-01-12T02:31:16.729Z,56.23
2023-01-12T02:33:59.255Z,56.70
2023-01-12T02:36:35.579Z,57.40
2023-01-12T02:39:12.941Z,57.43
2023-01-12T02:42:07.128Z,59.43
2023-01-12T02:44:40.857Z,59.40
2023-01-12T02:47:17.254Z,57.60
2023-01-12T02:49:52.530Z,56.97
2023-01-12T02:52:25.443Z,54.47
2023-01-12T02:54:55.315Z,58.07
2023-01-12T02:57:26.617Z,52.17
2023-01-12T02:59:56.576Z,54.60
2023-01-12T03:02:27.742Z,56.70
2023-01-12T03:04:57.335Z,57.73
2023-01-12T03:07:42.101Z,58.00
2023-01-12T03:10:20.037Z,57.17
2023-01-12T03:12:52.293Z,58.73
2023-01-12T03:15:21.033Z,55.83
2023-01-12T03:17:57.134Z,55.47
2023-01-12T03:20:29.736Z,59.77
2023-01-12T03:23:03.538Z,57.77
2023-01-12T03:25:34.975Z,60.30
2023-01-12T03:28:07.612Z,61.33
2023-01-12T03:30:39.863Z,58.70
2023-01-12T03:33:08.782Z,59.23
2023-01-12T03:35:44.876Z,58.40
2023-01-12T03:38:20.469Z,58.97
2023-01-12T03:40:57.894Z,63.97
2023-01-12T03:43:32.030Z,61.03
2023-01-12T03:46:05.920Z,60.53
2023-01-12T03:48:41.433Z,60.73
2023-01-12T03:51:16.309Z,60.13
2023-01-12T03:53:47.070Z,55.50
2023-01-12T03:56:17.381Z,54.03
2023-01-12T03:58:46.447Z,55.37
2023-01-12T04:01:15.076Z,48.27
2023-01-12T04:03:43.190Z,53.73
2023-01-12T04:06:12.797Z,49.53
2023-01-12T04:08:40.994Z,49.50
2023-01-12T04:11:23.614Z,49.23
2023-01-12T04:13:51.873Z,50.97
2023-01-12T04:16:20.137Z,50.50
2023-01-12T04:18:48.299Z,46.10
2023-01-12T04:21:35.135Z,48.73
2023-01-12T04:24:03.304Z,47.90
2023-01-12T04:26:31.479Z,44.47
2023-01-12T04:28:59.549Z,43.80
2023-01-12T04:31:27.616Z,45.63
2023-01-12T04:33:55.684Z,43.87
2023-01-12T04:36:25.240Z,45.23
2023-01-12T04:38:53.273Z,45.90
2023-01-12T04:41:21.368Z,43.20
2023-01-12T04:43:49.395Z,43.73
2023-01-12T04:46:17.594Z,40.83
2023-01-12T04:48:45.743Z,42.07
2023-01-12T04:51:14.335Z,40.20
2023-01-12T04:53:43.851Z,39.77
2023-01-12T04:56:11.969Z,38.27
2023-01-12T04:58:40.017Z,40.37
2023-01-12T05:01:12.043Z,39.57
2023-01-12T05:03:40.280Z,40.30
2023-01-12T05:06:09.087Z,39.93
2023-01-12T05:08:55.062Z,39.53
2023-01-12T05:11:28.552Z,41.77
2023-01-12T05:13:57.622Z,43.20
2023-01-12T05:16:26.455Z,43.67
2023-01-12T05:18:54.820Z,43.23
2023-01-12T05:21:23.994Z,45.00
2023-01-12T05:23:53.981Z,46.20
2023-01-12T05:26:22.582Z,47.97
2023-01-12T05:28:52.340Z,49.13
2023-01-12T05:31:21.027Z,49.77
2023-01-12T05:33:49.491Z,49.70
2023-01-12T05:36:18.458Z,52.30
2023-01-12T05:38:46.633Z,50.50
2023-01-12T05:41:14.951Z,51.20
2023-01-12T05:43:52.227Z,49.67
2023-01-12T05:46:23.796Z,50.50
2023-01-12T05:48:52.866Z,52.67
2023-01-12T05:51:21.471Z,53.13
2023-01-12T05:53:50.014Z,53.50
2023-01-12T05:56:20.516Z,54.50
2023-01-12T05:58:52.805Z,54.37
2023-01-12T06:01:22.964Z,54.17
2023-01-12T06:03:52.170Z,54.37
2023-01-12T06:06:22.070Z,54.70
2023-01-12T06:08:52.679Z,51.97
2023-01-12T06:11:39.123Z,53.73
2023-01-12T06:14:07.663Z,52.90
2023-01-12T06:16:38.889Z,51.13
2023-01-12T06:19:07.811Z,49.80
2023-01-12T06:21:36.084Z,50.27
2023-01-12T06:24:04.289Z,51.23
2023-01-12T06:26:32.369Z,50.33
2023-01-12T06:29:01.286Z,51.23
2023-01-12T06:31:29.451Z,50.40
2023-01-12T06:33:59.060Z,49.57
2023-01-12T06:36:27.206Z,49.20
2023-01-12T06:38:55.387Z,51.53
2023-01-12T06:41:41.186Z,52.20
2023-01-12T06:44:09.260Z,51.57
2023-01-12T06:46:37.410Z,51.43
2023-01-12T06:49:07.124Z,52.77
2023-01-12T06:51:35.207Z,53.73
2023-01-12T06:54:03.380Z,52.73
2023-01-12T06:56:31.705Z,52.67
2023-01-12T06:58:59.841Z,55.90
2023-01-12T07:01:27.968Z,55.17
2023-01-12T07:03:56.141Z,55.20
2023-01-12T07:06:25.730Z,54.47
2023-01-12T07:08:53.912Z,51.47
2023-01-12T07:11:22.048Z,50.90
2023-01-12T07:13:50.140Z,49.47
2023-01-12T07:16:18.428Z,46.70
2023-01-12T07:18:48.252Z,45.40
2023-01-12T07:21:16.976Z,44.33
2023-01-12T07:23:46.499Z,43.93
2023-01-12T07:26:15.018Z,44.23
2023-01-12T07:28:43.143Z,42.17
2023-01-12T07:31:11.389Z,43.17
2023-01-12T07:33:40.157Z,43.73
2023-01-12T07:36:12.709Z,41.53
2023-01-12T07:38:42.638Z,42.23
2023-01-12T07:41:32.265Z,42.70
2023-01-12T07:44:09.796Z,43.70
2023-01-12T07:46:38.306Z,42.57
2023-01-12T07:49:06.489Z,42.17
2023-01-12T07:51:35.042Z,39.80
2023-01-12T07:54:07.477Z,37.60
2023-01-12T07:56:36.952Z,36.43
2023-01-12T07:59:05.055Z,37.87
2023-01-12T08:01:36.050Z,36.20
2023-01-12T08:04:04.352Z,34.70
2023-01-12T08:06:32.623Z,34.50
2023-01-12T08:09:00.879Z,35.73
2023-01-12T08:11:29.055Z,33.57
2023-01-12T08:13:59.661Z,32.07
2023-01-12T08:16:33.650Z,33.57
2023-01-12T08:19:04.341Z,33.20
2023-01-12T08:21:39.769Z,31.70
2023-01-12T08:24:09.667Z,33.07
2023-01-12T08:26:42.204Z,31.53
2023-01-12T08:29:15.031Z,33.03
2023-01-12T08:31:43.866Z,32.37
2023-01-12T08:34:12.435Z,32.33
2023-01-12T08:36:44.202Z,31.77
2023-01-12T08:39:12.993Z,33.33
2023-01-12T08:41:42.445Z,31.27
2023-01-12T08:44:12.277Z,32.00
2023-01-12T08:46:48.123Z,31.07
2023-01-12T08:49:18.256Z,31.70
2023-01-12T08:51:46.882Z,31.60
2023-01-12T08:54:17.057Z,31.53
2023-01-12T08:56:45.435Z,32.30
2023-01-12T08:59:14.941Z,32.50
2023-01-12T09:01:43.462Z,30.97
2023-01-12T09:04:12.208Z,32.57
2023-01-12T09:06:42.689Z,29.80
2023-01-12T09:09:13.230Z,30.07
2023-01-12T09:11:43.072Z,30.53
2023-01-12T09:14:12.727Z,27.77
2023-01-12T09:16:42.745Z,28.47
2023-01-12T09:19:11.292Z,27.60
2023-01-12T09:21:41.556Z,25.80
2023-01-12T09:24:10.875Z,26.53
2023-01-12T09:26:40.639Z,25.97
2023-01-12T09:29:09.743Z,25.30
2023-01-12T09:31:39.145Z,26.70
2023-01-12T09:34:08.879Z,27.07
2023-01-12T09:36:38.565Z,25.67
2023-01-12T09:39:10.169Z,25.20
2023-01-12T09:42:02.522Z,25.80
2023-01-12T09:44:52.095Z,24.43
2023-01-12T09:47:27.221Z,26.27
2023-01-12T09:50:10.658Z,26.70
2023-01-12T09:52:42.713Z,27.53
2023-01-12T09:55:16.511Z,27.27
2023-01-12T09:58:16.518Z,27.83
2023-01-12T10:00:44.671Z,27.70
2023-01-12T10:03:17.482Z,26.57
2023-01-12T10:05:50.398Z,25.90
2023-01-12T10:08:24.143Z,23.87
2023-01-12T10:11:03.199Z,22.40
2023-01-12T10:13:48.885Z,22.40
2023-01-12T10:16:22.525Z,22.17
2023-01-12T10:18:55.735Z,22.33
2023-01-12T10:21:27.405Z,21.77
2023-01-12T10:23:56.220Z,21.70
2023-01-12T10:26:26.676Z,19.83
2023-01-12T10:28:56.369Z,19.67
2023-01-12T10:31:27.238Z,18.50
2023-01-12T10:34:13.478Z,18.77
2023-01-12T10:36:47.110Z,17.30
2023-01-12T10:39:38.719Z,15.77
2023-01-12T10:42:32.099Z,14.77
2023-01-12T10:45:13.952Z,15.60
2023-01-12T10:47:42.561Z,13.50
2023-01-12T10:50:29.432Z,13.13
2023-01-12T10:53:03.447Z,12.53
2023-01-12T10:55:34.505Z,10.27
2023-01-12T10:58:03.061Z,8.63
2023-01-12T11:00:31.774Z,8.00
2023-01-12T11:03:00.115Z,7.20
2023-01-12T11:05:37.538Z,8.17
2023-01-12T11:08:23.707Z,6.73
2023-01-12T11:10:51.901Z,6.60
2023-01-12T11:13:28.859Z,5.67
2023-01-12T11:16:12.029Z,6.10
2023-01-12T11:18:44.387Z,5.73
2023-01-12T11:21:19.854Z,5.43
2023-01-12T11:23:58.038Z,5.80
2023-01-12T11:26:32.076Z,4.60
2023-01-12T11:29:05.323Z,6.70
2023-01-12T11:31:39.649Z,4.77
2023-01-12T11:34:16.937Z,4.87
2023-01-12T11:36:49.002Z,6.43
2023-01-12T11:39:21.978Z,4.60
2023-01-12T11:42:06.655Z,4.57
2023-01-12T11:44:40.969Z,4.37
2023-01-12T11:47:14.276Z,4.30
2023-01-12T11:49:49.520Z,3.80
2023-01-12T11:52:18.079Z,3.40
2023-01-12T11:54:47.508Z,3.83
2023-01-12T11:57:42.351Z,3.80
2023-01-12T12:00:25.152Z,3.67
2023-01-12T12:03:06.355Z,3.60
2023-01-12T12:05:45.212Z,4.37
2023-01-12T12:08:26.376Z,3.17
2023-01-12T12:11:03.685Z,3.90
2023-01-12T12:13:36.824Z,3.30
2023-01-12T12:16:31.229Z,3.50
2023-01-12T12:19:26.989Z,3.80
2023-01-12T12:22:02.735Z,4.53
2023-01-12T12:24:56.236Z,3.90
2023-01-12T12:27:36.823Z,3.40
2023-01-12T12:30:23.092Z,4.37
2023-01-12T12:32:56.783Z,4.43
2023-01-12T12:35:42.673Z,3.63
2023-01-12T12:38:25.869Z,4.07
2023-01-12T12:41:30.986Z,3.63
2023-01-12T12:44:31.346Z,4.23
2023-01-12T12:47:07.969Z,4.00
2023-01-12T12:49:39.551Z,4.77
2023-01-12T12:52:11.908Z,5.57
2023-01-12T12:54:41.622Z,4.80
2023-01-12T12:57:09.964Z,3.63
2023-01-12T12:59:59.627Z,4.07
2023-01-12T13:02:55.599Z,4.43
2023-01-12T13:05:43.010Z,3.57
2023-01-12T13:08:23.864Z,3.57
2023-01-12T13:10:54.782Z,4.13
2023-01-12T13:13:32.151Z,3.80
2023-01-12T13:16:39.805Z,3.83
2023-01-12T13:19:15.803Z,3.77
2023-01-12T13:22:18.530Z,4.23
2023-01-12T13:24:47.140Z,4.57
2023-01-12T13:27:50.651Z,4.13
2023-01-12T13:30:24.277Z,3.93
2023-01-12T13:33:00.102Z,4.20
2023-01-12T13:35:57.985Z,5.30
2023-01-12T13:38:58.565Z,4.70
2023-01-12T13:41:48.835Z,3.90
2023-01-12T13:44:24.501Z,3.83
2023-01-12T13:46:58.037Z,4.67
2023-01-12T13:49:32.604Z,4.23
2023-01-12T13:52:03.531Z,7.40
2023-01-12T13:54:34.650Z,4.37
2023-01-12T13:57:05.502Z,5.10
2023-01-12T13:59:35.021Z,4.10
2023-01-12T14:02:03.988Z,5.07
2023-01-12T14:05:10.664Z,7.23
2023-01-12T14:07:57.073Z,5.97
2023-01-12T14:10:37.211Z,4.00
2023-01-12T14:13:26.501Z,4.43
2023-01-12T14:16:19.280Z,4.37
2023-01-12T14:18:49.536Z,5.03
2023-01-12T14:21:24.179Z,4.67
2023-01-12T14:23:52.340Z,4.20
2023-01-12T14:26:27.144Z,4.77
2023-01-12T14:28:55.438Z,4.20
2023-01-12T14:31:27.985Z,4.30
2023-01-12T14:33:57.765Z,4.70
2023-01-12T14:36:30.002Z,3.73
2023-01-12T14:39:00.313Z,4.93
2023-01-12T14:41:48.786Z,5.00
2023-01-12T14:44:40.683Z,4.07
2023-01-12T14:47:10.238Z,5.77
2023-01-12T14:49:39.547Z,4.97
2023-01-12T14:52:26.175Z,5.47
2023-01-12T14:54:54.265Z,4.47
2023-01-12T14:57:31.448Z,3.37
2023-01-12T14:59:59.865Z,3.43
2023-01-12T15:02:34.112Z,4.60
2023-01-12T15:05:05.989Z,4.50
2023-01-12T15:07:37.005Z,4.00
2023-01-12T15:10:32.847Z,5.23
2023-01-12T15:13:23.138Z,3.57
2023-01-12T15:16:10.573Z,3.90
2023-01-12T15:18:56.600Z,5.00
2023-01-12T15:21:42.938Z,5.03
2023-01-12T15:24:41.043Z,5.20
2023-01-12T15:27:10.527Z,3.87
2023-01-12T15:29:40.045Z,5.47
2023-01-12T15:32:16.603Z,5.43
2023-01-12T15:34:44.820Z,5.00
2023-01-12T15:37:16.863Z,4.80
2023-01-12T15:39:45.201Z,4.50
2023-01-12T15:42:21.979Z,5.57
2023-01-12T15:44:54.688Z,4.80
2023-01-12T15:47:23.283Z,5.63
2023-01-12T15:49:53.409Z,5.33
2023-01-12T15:52:23.631Z,8.13
2023-01-12T15:54:52.323Z,7.53
2023-01-12T15:57:20.657Z,6.10
2023-01-12T15:59:48.808Z,5.97
2023-01-12T16:02:27.597Z,6.27
2023-01-12T16:04:55.683Z,9.73
2023-01-12T16:07:23.928Z,6.70
2023-01-12T16:09:52.013Z,6.13
2023-01-12T16:12:20.109Z,8.40
2023-01-12T16:14:50.352Z,6.67
2023-01-12T16:17:18.970Z,6.43
2023-01-12T16:19:48.382Z,7.80
2023-01-12T16:22:21.307Z,6.37
2023-01-12T16:24:49.887Z,6.73
2023-01-12T16:27:19.468Z,6.97
2023-01-12T16:29:48.012Z,8.13
2023-01-12T16:32:16.384Z,6.80
2023-01-12T16:34:45.842Z,7.30
2023-01-12T16:37:16.619Z,8.33
2023-01-12T16:39:45.776Z,7.53
2023-01-12T16:42:13.843Z,8.67
2023-01-12T16:44:42.173Z,8.80
2023-01-12T16:47:14.625Z,8.27
2023-01-12T16:49:43.240Z,8.03
2023-01-12T16:52:16.738Z,10.27
2023-01-12T16:54:44.884Z,8.60
2023-01-12T16:57:14.469Z,10.07
2023-01-12T16:59:43.101Z,9.57
2023-01-12T17:02:14.025Z,9.17
2023-01-12T17:04:43.880Z,8.47
2023-01-12T17:07:12.727Z,11.17
2023-01-12T17:09:42.487Z,9.03
2023-01-12T17:12:11.460Z,11.30
2023-01-12T17:14:39.825Z,10.53
2023-01-12T17:17:10.822Z,9.20
2023-01-12T17:19:42.765Z,9.90
2023-01-12T17:22:11.852Z,10.00
2023-01-12T17:24:42.364Z,9.80
2023-01-12T17:27:11.747Z,9.67
2023-01-12T17:29:40.217Z,10.60
2023-01-12T17:32:08.425Z,10.73
2023-01-12T17:34:39.523Z,11.47
2023-01-12T17:37:08.946Z,11.93
2023-01-12T17:39:39.821Z,11.40
2023-01-12T17:42:28.331Z,12.37
2023-01-12T17:44:56.391Z,11.20
2023-01-12T17:47:25.335Z,14.20
2023-01-12T17:49:55.174Z,12.23
2023-01-12T17:52:23.552Z,12.10
2023-01-12T17:54:51.699Z,12.67
2023-01-12T17:57:21.180Z,14.20
2023-01-12T17:59:50.299Z,12.20
2023-01-12T18:02:19.190Z,14.73
2023-01-12T18:04:47.590Z,12.57
2023-01-12T18:07:15.721Z,13.03
2023-01-12T18:09:43.772Z,12.90
2023-01-12T18:12:12.468Z,12.60
2023-01-12T18:14:41.976Z,13.23
2023-01-12T18:17:11.243Z,12.70
2023-01-12T18:19:41.510Z,12.33
2023-01-12T18:22:10.973Z,12.13
2023-01-12T18:24:39.238Z,12.27
2023-01-12T18:27:07.376Z,11.93
2023-01-12T18:29:35.628Z,12.13
2023-01-12T18:32:05.617Z,12.83
2023-01-12T18:34:33.722Z,11.67
2023-01-12T18:37:02.008Z,12.90
2023-01-12T18:39:30.249Z,10.87
2023-01-12T18:42:15.971Z,11.80
2023-01-12T18:44:44.226Z,11.57
2023-01-12T18:47:33.888Z,12.17
2023-01-12T18:50:22.860Z,11.10
2023-01-12T18:53:08.402Z,11.60
2023-01-12T18:55:38.199Z,12.87
2023-01-12T18:58:06.430Z,11.77
2023-01-12T19:00:34.737Z,11.60
2023-01-12T19:03:05.537Z,11.23
2023-01-12T19:05:42.663Z,11.40
2023-01-12T19:08:28.453Z,11.37
2023-01-12T19:10:57.036Z,11.70
2023-01-12T19:13:42.286Z,11.03
2023-01-12T19:16:32.379Z,11.43
2023-01-12T19:19:01.920Z,13.13
2023-01-12T19:21:47.320Z,13.67
2023-01-12T19:24:47.740Z,12.83
2023-01-12T19:27:33.045Z,12.03
2023-01-12T19:30:01.609Z,13.53
2023-01-12T19:32:29.859Z,12.53
2023-01-12T19:35:10.302Z,12.10
2023-01-12T19:37:39.086Z,11.93
2023-01-12T19:40:14.674Z,13.67
2023-01-12T19:43:00.414Z,12.13
2023-01-12T19:45:28.509Z,11.37
2023-01-12T19:47:56.621Z,12.10
2023-01-12T19:50:26.129Z,12.87
2023-01-12T19:52:54.357Z,12.27
2023-01-12T19:55:22.664Z,12.13
2023-01-12T19:57:51.561Z,12.57
2023-01-12T20:00:20.360Z,12.07
2023-01-12T20:02:48.535Z,12.93
2023-01-12T20:05:22.719Z,13.53
2023-01-12T20:07:53.679Z,12.93
2023-01-12T20:10:22.927Z,13.27
2023-01-12T20:12:52.529Z,12.20
2023-01-12T20:15:21.771Z,11.93
2023-01-12T20:17:50.641Z,13.00
2023-01-12T20:20:19.566Z,13.43
2023-01-12T20:22:50.483Z,13.93
2023-01-12T20:25:20.661Z,13.30
2023-01-12T20:27:49.431Z,14.00
2023-01-12T20:30:31.927Z,14.57
2023-01-12T20:33:04.866Z,13.10
2023-01-12T20:35:33.316Z,13.27
2023-01-12T20:38:04.076Z,13.13
2023-01-12T20:40:33.720Z,13.20
2023-01-12T20:43:01.881Z,12.93
2023-01-12T20:45:30.044Z,13.47
2023-01-12T20:47:58.194Z,15.23
2023-01-12T20:50:26.264Z,14.40
2023-01-12T20:52:54.738Z,13.20
2023-01-12T20:55:22.873Z,13.23
2023-01-12T20:57:52.388Z,13.10
2023-01-12T21:00:20.957Z,13.57
2023-01-12T21:02:49.064Z,13.60
2023-01-12T21:05:17.286Z,12.87
2023-01-12T21:07:45.406Z,12.67
2023-01-12T21:10:13.509Z,12.97
2023-01-12T21:12:41.789Z,14.70
2023-01-12T21:15:13.538Z,12.67
2023-01-12T21:17:42.835Z,12.53
2023-01-12T21:20:12.312Z,12.10
2023-01-12T21:22:40.425Z,12.47
2023-01-12T21:25:09.546Z,14.03
2023-01-12T21:27:37.760Z,12.87
2023-01-12T21:30:06.890Z,12.50
2023-01-12T21:32:36.376Z,12.83
2023-01-12T21:35:04.513Z,12.70
2023-01-12T21:37:33.262Z,12.17
2023-01-12T21:40:01.416Z,12.67
2023-01-12T21:42:47.212Z,11.83
2023-01-12T21:45:15.550Z,11.43
2023-01-12T21:47:46.414Z,12.20
2023-01-12T21:50:14.820Z,12.23
2023-01-12T21:52:43.519Z,12.33
2023-01-12T21:55:13.585Z,11.23
2023-01-12T21:57:41.928Z,12.27
2023-01-12T22:00:11.585Z,11.53
2023-01-12T22:02:44.555Z,11.77
2023-01-12T22:05:13.747Z,10.77
2023-01-12T22:07:42.101Z,12.57
2023-01-12T22:10:20.851Z,11.47
2023-01-12T22:12:50.440Z,11.17
2023-01-12T22:15:19.234Z,12.37
2023-01-12T22:17:48.919Z,13.50
2023-01-12T22:20:17.655Z,11.70
2023-01-12T22:22:46.039Z,13.50
2023-01-12T22:25:15.391Z,12.13
2023-01-12T22:27:43.626Z,13.57
2023-01-12T22:30:13.989Z,15.10
2023-01-12T22:32:42.673Z,16.60
2023-01-12T22:35:13.370Z,15.67
2023-01-12T22:37:42.048Z,15.27
2023-01-12T22:40:12.492Z,15.23
2023-01-12T22:42:58.159Z,14.53
2023-01-12T22:45:26.275Z,14.90
2023-01-12T22:47:55.167Z,14.93
2023-01-12T22:50:25.588Z,14.00
2023-01-12T22:52:54.879Z,13.70
2023-01-12T22:55:24.494Z,13.30
2023-01-12T22:57:53.156Z,14.33
2023-01-12T23:00:22.328Z,14.10
2023-01-12T23:03:02.776Z,14.20
2023-01-12T23:05:36.193Z,13.50
2023-01-12T23:08:05.738Z,15.03
2023-01-12T23:10:34.649Z,15.23
2023-01-12T23:13:14.052Z,15.93
2023-01-12T23:15:43.951Z,14.83
2023-01-12T23:18:12.985Z,16.97
2023-01-12T23:20:42.849Z,15.90
2023-01-12T23:23:11.932Z,15.87
2023-01-12T23:25:40.502Z,14.80
2023-01-12T23:28:09.179Z,14.90
2023-01-12T23:30:37.467Z,14.47
2023-01-12T23:33:06.136Z,14.17
2023-01-12T23:35:37.186Z,15.03
2023-01-12T23:38:07.185Z,15.93
2023-01-12T23:40:35.461Z,15.37
2023-01-12T23:43:03.555Z,14.87
2023-01-12T23:45:31.906Z,14.87
2023-01-12T23:48:00.097Z,13.97
2023-01-12T23:50:28.269Z,13.80
2023-01-12T23:52:56.428Z,13.90
2023-01-12T23:55:27.110Z,14.80
2023-01-12T23:57:55.231Z,13.13
